sensor_id;sensor_type;location;lat;lon;timestamp;P1;durP1;ratioP1;P2;durP2;ratioP2
45688;SDS011;31400;48.132;20.872;2023-02-16T00:00:27;52.97;;;22.25;;
45688;SDS011;31400;48.132;20.872;2023-02-16T00:02:53;41.40;;;19.35;;
45688;SDS011;31400;48.132;20.872;2023-02-16T00:05:29;53.53;;;22.77;;
45688;SDS011;31400;48.132;20.872;2023-02-16T00:07:56;48.42;;;21.70;;
45688;SDS011;31400;48.132;20.872;2023-02-16T00:10:23;41.25;;;20.10;;
45688;SDS011;31400;48.132;20.872;2023-02-16T00:12:49;50.50;;;19.17;;
45688;SDS011;31400;48.132;20.872;2023-02-16T00:15:35;42.28;;;22.20;;
45688;SDS011;31400;48.132;20.872;2023-02-16T00:18:01;50.05;;;23.33;;
45688;SDS011;31400;48.132;20.872;2023-02-16T00:20:28;43.85;;;20.50;;
45688;SDS011;31400;48.132;20.872;2023-02-16T00:22:54;59.05;;;26.58;;
45688;SDS011;31400;48.132;20.872;2023-02-16T00:25:21;61.15;;;26.70;;
45688;SDS011;31400;48.132;20.872;2023-02-16T00:27:47;59.60;;;25.35;;
45688;SDS011;31400;48.132;20.872;2023-02-16T00:30:19;64.57;;;26.23;;
45688;SDS011;31400;48.132;20.872;2023-02-16T00:32:45;64.30;;;26.30;;
45688;SDS011;31400;48.132;20.872;2023-02-16T00:35:15;44.40;;;20.30;;
45688;SDS011;31400;48.132;20.872;2023-02-16T00:37:42;41.22;;;19.00;;
45688;SDS011;31400;48.132;20.872;2023-02-16T00:40:08;36.10;;;18.40;;
45688;SDS011;31400;48.132;20.872;2023-02-16T00:45:00;34.20;;;15.43;;
45688;SDS011;31400;48.132;20.872;2023-02-16T00:47:34;69.78;;;16.92;;
45688;SDS011;31400;48.132;20.872;2023-02-16T00:50:14;39.95;;;17.40;;
45688;SDS011;31400;48.132;20.872;2023-02-16T00:52:41;32.90;;;16.30;;
45688;SDS011;31400;48.132;20.872;2023-02-16T00:57:34;47.13;;;14.15;;
45688;SDS011;31400;48.132;20.872;2023-02-16T01:00:18;35.47;;;15.55;;
45688;SDS011;31400;48.132;20.872;2023-02-16T01:02:46;27.13;;;12.88;;
45688;SDS011;31400;48.132;20.872;2023-02-16T01:05:12;32.15;;;16.05;;
45688;SDS011;31400;48.132;20.872;2023-02-16T01:07:39;28.17;;;12.45;;
45688;SDS011;31400;48.132;20.872;2023-02-16T01:10:24;24.50;;;12.75;;
45688;SDS011;31400;48.132;20.872;2023-02-16T01:13:09;23.90;;;12.23;;
45688;SDS011;31400;48.132;20.872;2023-02-16T01:18:01;21.20;;;12.35;;
45688;SDS011;31400;48.132;20.872;2023-02-16T01:20:27;27.83;;;12.88;;
45688;SDS011;31400;48.132;20.872;2023-02-16T01:22:53;30.05;;;12.60;;
45688;SDS011;31400;48.132;20.872;2023-02-16T01:25:20;24.13;;;11.77;;
45688;SDS011;31400;48.132;20.872;2023-02-16T01:27:46;27.73;;;12.70;;
45688;SDS011;31400;48.132;20.872;2023-02-16T01:30:13;26.85;;;11.38;;
45688;SDS011;31400;48.132;20.872;2023-02-16T01:32:40;28.25;;;12.50;;
45688;SDS011;31400;48.132;20.872;2023-02-16T01:35:06;31.10;;;12.18;;
45688;SDS011;31400;48.132;20.872;2023-02-16T01:39:59;47.00;;;14.75;;
45688;SDS011;31400;48.132;20.872;2023-02-16T01:42:36;28.77;;;18.08;;
45688;SDS011;31400;48.132;20.872;2023-02-16T01:45:12;26.10;;;13.93;;
45688;SDS011;31400;48.132;20.872;2023-02-16T01:47:50;33.17;;;14.90;;
45688;SDS011;31400;48.132;20.872;2023-02-16T01:50:19;43.63;;;16.90;;
45688;SDS011;31400;48.132;20.872;2023-02-16T01:52:54;47.78;;;18.77;;
45688;SDS011;31400;48.132;20.872;2023-02-16T01:55:26;46.80;;;20.23;;
45688;SDS011;31400;48.132;20.872;2023-02-16T02:03:27;50.88;;;21.75;;
45688;SDS011;31400;48.132;20.872;2023-02-16T02:06:15;50.33;;;20.05;;
45688;SDS011;31400;48.132;20.872;2023-02-16T02:08:48;50.67;;;19.88;;
45688;SDS011;31400;48.132;20.872;2023-02-16T02:13:46;30.40;;;13.63;;
45688;SDS011;31400;48.132;20.872;2023-02-16T02:16:16;47.15;;;18.15;;
45688;SDS011;31400;48.132;20.872;2023-02-16T02:18:42;34.47;;;17.15;;
45688;SDS011;31400;48.132;20.872;2023-02-16T02:21:15;58.35;;;16.35;;
45688;SDS011;31400;48.132;20.872;2023-02-16T02:26:37;34.03;;;19.15;;
45688;SDS011;31400;48.132;20.872;2023-02-16T02:31:51;40.42;;;18.75;;
45688;SDS011;31400;48.132;20.872;2023-02-16T02:42:14;51.55;;;14.73;;
45688;SDS011;31400;48.132;20.872;2023-02-16T02:44:47;29.27;;;15.52;;
45688;SDS011;31400;48.132;20.872;2023-02-16T02:47:14;28.13;;;14.20;;
45688;SDS011;31400;48.132;20.872;2023-02-16T02:49:47;27.77;;;13.95;;
45688;SDS011;31400;48.132;20.872;2023-02-16T02:52:13;46.17;;;18.55;;
45688;SDS011;31400;48.132;20.872;2023-02-16T02:54:39;35.50;;;18.38;;
45688;SDS011;31400;48.132;20.872;2023-02-16T03:03:23;27.50;;;18.00;;
45688;SDS011;31400;48.132;20.872;2023-02-16T03:05:58;34.15;;;16.90;;
45688;SDS011;31400;48.132;20.872;2023-02-16T03:08:27;29.30;;;15.57;;
45688;SDS011;31400;48.132;20.872;2023-02-16T03:11:02;30.90;;;15.18;;
45688;SDS011;31400;48.132;20.872;2023-02-16T03:13:53;60.15;;;14.77;;
45688;SDS011;31400;48.132;20.872;2023-02-16T03:16:22;27.00;;;13.68;;
45688;SDS011;31400;48.132;20.872;2023-02-16T03:18:50;28.38;;;14.20;;
45688;SDS011;31400;48.132;20.872;2023-02-16T03:21:35;31.00;;;15.05;;
45688;SDS011;31400;48.132;20.872;2023-02-16T03:24:29;25.17;;;12.07;;
45688;SDS011;31400;48.132;20.872;2023-02-16T03:27:16;17.67;;;9.05;;
45688;SDS011;31400;48.132;20.872;2023-02-16T03:30:01;18.25;;;8.68;;
45688;SDS011;31400;48.132;20.872;2023-02-16T03:32:28;19.33;;;11.68;;
45688;SDS011;31400;48.132;20.872;2023-02-16T03:34:54;20.40;;;8.57;;
45688;SDS011;31400;48.132;20.872;2023-02-16T03:37:20;25.67;;;14.43;;
45688;SDS011;31400;48.132;20.872;2023-02-16T03:39:47;25.10;;;16.38;;
45688;SDS011;31400;48.132;20.872;2023-02-16T03:42:33;41.13;;;14.97;;
45688;SDS011;31400;48.132;20.872;2023-02-16T03:44:59;31.08;;;15.80;;
45688;SDS011;31400;48.132;20.872;2023-02-16T03:47:25;72.20;;;17.33;;
45688;SDS011;31400;48.132;20.872;2023-02-16T03:49:51;42.55;;;18.30;;
45688;SDS011;31400;48.132;20.872;2023-02-16T03:52:17;51.85;;;18.30;;
45688;SDS011;31400;48.132;20.872;2023-02-16T03:54:43;50.70;;;19.00;;
45688;SDS011;31400;48.132;20.872;2023-02-16T03:57:10;59.85;;;26.65;;
45688;SDS011;31400;48.132;20.872;2023-02-16T03:59:36;50.15;;;23.13;;
45688;SDS011;31400;48.132;20.872;2023-02-16T04:02:02;37.80;;;17.60;;
45688;SDS011;31400;48.132;20.872;2023-02-16T04:04:28;65.00;;;24.45;;
45688;SDS011;31400;48.132;20.872;2023-02-16T04:06:54;66.65;;;25.08;;
45688;SDS011;31400;48.132;20.872;2023-02-16T04:09:20;57.75;;;24.77;;
45688;SDS011;31400;48.132;20.872;2023-02-16T04:11:46;44.67;;;20.30;;
45688;SDS011;31400;48.132;20.872;2023-02-16T04:14:30;52.15;;;20.20;;
45688;SDS011;31400;48.132;20.872;2023-02-16T04:16:56;56.20;;;26.10;;
45688;SDS011;31400;48.132;20.872;2023-02-16T04:19:22;56.90;;;23.92;;
45688;SDS011;31400;48.132;20.872;2023-02-16T04:21:49;71.10;;;31.98;;
45688;SDS011;31400;48.132;20.872;2023-02-16T04:24:17;74.82;;;36.60;;
45688;SDS011;31400;48.132;20.872;2023-02-16T04:26:43;77.10;;;34.88;;
45688;SDS011;31400;48.132;20.872;2023-02-16T04:29:09;68.68;;;32.08;;
45688;SDS011;31400;48.132;20.872;2023-02-16T04:31:36;59.22;;;26.70;;
45688;SDS011;31400;48.132;20.872;2023-02-16T04:34:02;44.13;;;23.33;;
45688;SDS011;31400;48.132;20.872;2023-02-16T04:36:28;68.70;;;22.65;;
45688;SDS011;31400;48.132;20.872;2023-02-16T04:38:55;47.92;;;22.15;;
45688;SDS011;31400;48.132;20.872;2023-02-16T04:41:21;43.00;;;23.38;;
45688;SDS011;31400;48.132;20.872;2023-02-16T04:43:47;26.20;;;15.25;;
45688;SDS011;31400;48.132;20.872;2023-02-16T04:46:13;30.70;;;15.57;;
45688;SDS011;31400;48.132;20.872;2023-02-16T04:48:39;32.22;;;17.48;;
45688;SDS011;31400;48.132;20.872;2023-02-16T04:51:05;29.55;;;14.55;;
45688;SDS011;31400;48.132;20.872;2023-02-16T04:53:31;33.90;;;14.85;;
45688;SDS011;31400;48.132;20.872;2023-02-16T04:55:57;29.20;;;10.85;;
45688;SDS011;31400;48.132;20.872;2023-02-16T04:58:23;39.45;;;14.77;;
45688;SDS011;31400;48.132;20.872;2023-02-16T05:00:49;22.17;;;10.40;;
45688;SDS011;31400;48.132;20.872;2023-02-16T05:03:16;31.65;;;9.70;;
45688;SDS011;31400;48.132;20.872;2023-02-16T05:05:42;31.50;;;13.18;;
45688;SDS011;31400;48.132;20.872;2023-02-16T05:08:08;36.03;;;12.07;;
45688;SDS011;31400;48.132;20.872;2023-02-16T05:10:34;26.33;;;12.60;;
45688;SDS011;31400;48.132;20.872;2023-02-16T05:13:00;29.98;;;13.77;;
45688;SDS011;31400;48.132;20.872;2023-02-16T05:15:45;20.50;;;11.68;;
45688;SDS011;31400;48.132;20.872;2023-02-16T05:18:11;45.58;;;12.15;;
45688;SDS011;31400;48.132;20.872;2023-02-16T05:20:37;26.27;;;11.80;;
45688;SDS011;31400;48.132;20.872;2023-02-16T05:23:21;30.05;;;12.35;;
45688;SDS011;31400;48.132;20.872;2023-02-16T05:25:47;30.40;;;13.25;;
45688;SDS011;31400;48.132;20.872;2023-02-16T05:28:13;23.08;;;12.88;;
45688;SDS011;31400;48.132;20.872;2023-02-16T05:30:39;22.05;;;11.85;;
45688;SDS011;31400;48.132;20.872;2023-02-16T05:33:05;36.15;;;13.15;;
45688;SDS011;31400;48.132;20.872;2023-02-16T05:35:32;36.50;;;15.00;;
45688;SDS011;31400;48.132;20.872;2023-02-16T05:37:59;39.83;;;16.60;;
45688;SDS011;31400;48.132;20.872;2023-02-16T05:40:25;30.35;;;15.60;;
45688;SDS011;31400;48.132;20.872;2023-02-16T05:42:54;24.65;;;11.88;;
45688;SDS011;31400;48.132;20.872;2023-02-16T05:45:20;27.95;;;12.70;;
45688;SDS011;31400;48.132;20.872;2023-02-16T05:47:46;18.75;;;10.52;;
45688;SDS011;31400;48.132;20.872;2023-02-16T05:50:12;37.97;;;14.05;;
45688;SDS011;31400;48.132;20.872;2023-02-16T05:52:38;17.23;;;9.43;;
45688;SDS011;31400;48.132;20.872;2023-02-16T05:55:04;15.48;;;9.63;;
45688;SDS011;31400;48.132;20.872;2023-02-16T05:57:30;22.52;;;12.25;;
45688;SDS011;31400;48.132;20.872;2023-02-16T05:59:59;17.17;;;9.93;;
45688;SDS011;31400;48.132;20.872;2023-02-16T06:02:25;23.33;;;11.70;;
45688;SDS011;31400;48.132;20.872;2023-02-16T06:04:51;22.58;;;13.60;;
45688;SDS011;31400;48.132;20.872;2023-02-16T06:07:17;28.25;;;12.40;;
45688;SDS011;31400;48.132;20.872;2023-02-16T06:09:43;18.52;;;10.80;;
45688;SDS011;31400;48.132;20.872;2023-02-16T06:12:09;25.52;;;11.38;;
45688;SDS011;31400;48.132;20.872;2023-02-16T06:14:35;21.20;;;11.23;;
45688;SDS011;31400;48.132;20.872;2023-02-16T06:17:01;26.58;;;11.10;;
45688;SDS011;31400;48.132;20.872;2023-02-16T06:19:27;30.92;;;13.18;;
45688;SDS011;31400;48.132;20.872;2023-02-16T06:21:53;22.95;;;13.07;;
45688;SDS011;31400;48.132;20.872;2023-02-16T06:24:19;36.47;;;12.25;;
45688;SDS011;31400;48.132;20.872;2023-02-16T06:26:45;33.92;;;15.38;;
45688;SDS011;31400;48.132;20.872;2023-02-16T06:29:11;67.40;;;14.48;;
45688;SDS011;31400;48.132;20.872;2023-02-16T06:31:38;43.42;;;14.80;;
45688;SDS011;31400;48.132;20.872;2023-02-16T06:34:04;27.45;;;13.07;;
45688;SDS011;31400;48.132;20.872;2023-02-16T06:36:30;29.65;;;13.55;;
45688;SDS011;31400;48.132;20.872;2023-02-16T06:38:56;21.33;;;10.93;;
45688;SDS011;31400;48.132;20.872;2023-02-16T06:41:22;22.67;;;12.02;;
45688;SDS011;31400;48.132;20.872;2023-02-16T06:44:03;18.60;;;12.32;;
45688;SDS011;31400;48.132;20.872;2023-02-16T06:46:29;25.98;;;11.43;;
45688;SDS011;31400;48.132;20.872;2023-02-16T06:48:56;30.50;;;11.20;;
45688;SDS011;31400;48.132;20.872;2023-02-16T06:51:22;26.42;;;11.77;;
45688;SDS011;31400;48.132;20.872;2023-02-16T06:53:48;24.42;;;10.80;;
45688;SDS011;31400;48.132;20.872;2023-02-16T06:56:14;23.25;;;9.73;;
45688;SDS011;31400;48.132;20.872;2023-02-16T06:58:40;26.55;;;11.60;;
45688;SDS011;31400;48.132;20.872;2023-02-16T07:01:06;24.02;;;6.43;;
45688;SDS011;31400;48.132;20.872;2023-02-16T07:03:32;33.58;;;11.00;;
45688;SDS011;31400;48.132;20.872;2023-02-16T07:05:59;23.92;;;10.82;;
45688;SDS011;31400;48.132;20.872;2023-02-16T07:08:25;51.72;;;12.27;;
45688;SDS011;31400;48.132;20.872;2023-02-16T07:10:52;33.40;;;12.70;;
45688;SDS011;31400;48.132;20.872;2023-02-16T07:13:19;26.45;;;11.23;;
45688;SDS011;31400;48.132;20.872;2023-02-16T07:15:45;39.28;;;13.77;;
45688;SDS011;31400;48.132;20.872;2023-02-16T07:18:11;33.42;;;12.98;;
45688;SDS011;31400;48.132;20.872;2023-02-16T07:20:37;51.97;;;13.95;;
45688;SDS011;31400;48.132;20.872;2023-02-16T07:23:03;17.92;;;10.70;;
45688;SDS011;31400;48.132;20.872;2023-02-16T07:25:30;26.60;;;15.40;;
45688;SDS011;31400;48.132;20.872;2023-02-16T07:27:57;51.03;;;13.30;;
45688;SDS011;31400;48.132;20.872;2023-02-16T07:30:23;22.50;;;10.98;;
45688;SDS011;31400;48.132;20.872;2023-02-16T07:32:49;24.55;;;10.23;;
45688;SDS011;31400;48.132;20.872;2023-02-16T07:35:15;24.08;;;12.85;;
45688;SDS011;31400;48.132;20.872;2023-02-16T07:37:41;26.83;;;13.35;;
45688;SDS011;31400;48.132;20.872;2023-02-16T07:40:07;23.13;;;11.77;;
45688;SDS011;31400;48.132;20.872;2023-02-16T07:42:34;33.58;;;15.40;;
45688;SDS011;31400;48.132;20.872;2023-02-16T07:45:00;49.45;;;17.05;;
45688;SDS011;31400;48.132;20.872;2023-02-16T07:47:26;26.63;;;13.15;;
45688;SDS011;31400;48.132;20.872;2023-02-16T07:49:52;32.70;;;13.35;;
45688;SDS011;31400;48.132;20.872;2023-02-16T07:52:18;39.30;;;15.93;;
45688;SDS011;31400;48.132;20.872;2023-02-16T07:54:44;30.00;;;13.98;;
45688;SDS011;31400;48.132;20.872;2023-02-16T07:59:36;24.35;;;12.15;;
45688;SDS011;31400;48.132;20.872;2023-02-16T08:02:02;27.92;;;15.57;;
45688;SDS011;31400;48.132;20.872;2023-02-16T08:04:28;29.33;;;12.70;;
45688;SDS011;31400;48.132;20.872;2023-02-16T08:06:54;24.58;;;9.65;;
45688;SDS011;31400;48.132;20.872;2023-02-16T08:09:20;30.23;;;14.02;;
45688;SDS011;31400;48.132;20.872;2023-02-16T08:11:46;23.15;;;12.95;;
45688;SDS011;31400;48.132;20.872;2023-02-16T08:14:13;33.40;;;12.55;;
45688;SDS011;31400;48.132;20.872;2023-02-16T08:16:40;33.88;;;14.70;;
45688;SDS011;31400;48.132;20.872;2023-02-16T08:19:06;24.70;;;13.00;;
45688;SDS011;31400;48.132;20.872;2023-02-16T08:21:35;31.33;;;11.82;;
45688;SDS011;31400;48.132;20.872;2023-02-16T08:24:03;20.45;;;11.40;;
45688;SDS011;31400;48.132;20.872;2023-02-16T08:26:39;21.77;;;12.70;;
45688;SDS011;31400;48.132;20.872;2023-02-16T08:29:07;40.92;;;12.93;;
45688;SDS011;31400;48.132;20.872;2023-02-16T08:31:34;29.38;;;13.60;;
45688;SDS011;31400;48.132;20.872;2023-02-16T08:34:02;31.15;;;13.70;;
45688;SDS011;31400;48.132;20.872;2023-02-16T08:36:30;26.40;;;16.88;;
45688;SDS011;31400;48.132;20.872;2023-02-16T08:38:57;31.10;;;15.82;;
45688;SDS011;31400;48.132;20.872;2023-02-16T08:43:50;33.58;;;15.05;;
45688;SDS011;31400;48.132;20.872;2023-02-16T08:46:17;43.15;;;16.23;;
45688;SDS011;31400;48.132;20.872;2023-02-16T08:48:43;35.10;;;19.75;;
45688;SDS011;31400;48.132;20.872;2023-02-16T08:51:18;46.45;;;18.55;;
45688;SDS011;31400;48.132;20.872;2023-02-16T08:53:45;36.47;;;19.92;;
45688;SDS011;31400;48.132;20.872;2023-02-16T08:58:37;48.45;;;17.88;;
45688;SDS011;31400;48.132;20.872;2023-02-16T09:01:04;35.45;;;18.88;;
45688;SDS011;31400;48.132;20.872;2023-02-16T09:03:32;42.90;;;21.25;;
45688;SDS011;31400;48.132;20.872;2023-02-16T09:05:59;44.67;;;19.35;;
45688;SDS011;31400;48.132;20.872;2023-02-16T09:08:26;46.92;;;20.33;;
45688;SDS011;31400;48.132;20.872;2023-02-16T09:10:52;37.47;;;17.60;;
45688;SDS011;31400;48.132;20.872;2023-02-16T09:13:18;36.65;;;19.13;;
45688;SDS011;31400;48.132;20.872;2023-02-16T09:15:45;43.53;;;18.02;;
45688;SDS011;31400;48.132;20.872;2023-02-16T09:18:12;41.88;;;17.10;;
45688;SDS011;31400;48.132;20.872;2023-02-16T09:20:39;43.00;;;20.20;;
45688;SDS011;31400;48.132;20.872;2023-02-16T09:23:06;49.08;;;16.88;;
45688;SDS011;31400;48.132;20.872;2023-02-16T09:25:33;35.13;;;17.13;;
45688;SDS011;31400;48.132;20.872;2023-02-16T09:28:00;43.20;;;21.92;;
45688;SDS011;31400;48.132;20.872;2023-02-16T09:30:26;40.08;;;18.13;;
45688;SDS011;31400;48.132;20.872;2023-02-16T09:32:52;60.50;;;21.40;;
45688;SDS011;31400;48.132;20.872;2023-02-16T09:35:19;42.40;;;19.10;;
45688;SDS011;31400;48.132;20.872;2023-02-16T09:37:46;51.75;;;24.00;;
45688;SDS011;31400;48.132;20.872;2023-02-16T09:40:13;54.80;;;24.25;;
45688;SDS011;31400;48.132;20.872;2023-02-16T09:45:18;51.67;;;21.02;;
45688;SDS011;31400;48.132;20.872;2023-02-16T09:47:46;52.00;;;21.83;;
45688;SDS011;31400;48.132;20.872;2023-02-16T09:50:17;49.72;;;22.20;;
45688;SDS011;31400;48.132;20.872;2023-02-16T09:52:54;52.92;;;23.42;;
45688;SDS011;31400;48.132;20.872;2023-02-16T09:55:22;44.15;;;20.75;;
45688;SDS011;31400;48.132;20.872;2023-02-16T09:58:25;59.05;;;24.33;;
45688;SDS011;31400;48.132;20.872;2023-02-16T10:03:16;57.80;;;25.10;;
45688;SDS011;31400;48.132;20.872;2023-02-16T10:08:37;56.70;;;22.38;;
45688;SDS011;31400;48.132;20.872;2023-02-16T10:11:19;50.97;;;26.33;;
45688;SDS011;31400;48.132;20.872;2023-02-16T10:16:50;55.95;;;22.83;;
45688;SDS011;31400;48.132;20.872;2023-02-16T10:19:22;59.90;;;26.70;;
45688;SDS011;31400;48.132;20.872;2023-02-16T10:21:52;62.65;;;22.85;;
45688;SDS011;31400;48.132;20.872;2023-02-16T10:24:19;66.10;;;30.77;;
45688;SDS011;31400;48.132;20.872;2023-02-16T10:26:47;71.07;;;23.98;;
45688;SDS011;31400;48.132;20.872;2023-02-16T10:29:16;53.38;;;24.27;;
45688;SDS011;31400;48.132;20.872;2023-02-16T10:42:28;41.88;;;22.65;;
45688;SDS011;31400;48.132;20.872;2023-02-16T10:45:03;53.25;;;22.92;;
45688;SDS011;31400;48.132;20.872;2023-02-16T10:47:33;46.40;;;18.42;;
45688;SDS011;31400;48.132;20.872;2023-02-16T10:50:00;60.95;;;26.50;;
45688;SDS011;31400;48.132;20.872;2023-02-16T10:52:28;41.80;;;21.42;;
45688;SDS011;31400;48.132;20.872;2023-02-16T10:54:55;42.60;;;22.98;;
45688;SDS011;31400;48.132;20.872;2023-02-16T10:57:25;57.83;;;23.25;;
45688;SDS011;31400;48.132;20.872;2023-02-16T10:59:52;68.22;;;23.33;;
45688;SDS011;31400;48.132;20.872;2023-02-16T11:05:01;56.30;;;22.90;;
45688;SDS011;31400;48.132;20.872;2023-02-16T11:07:30;63.78;;;26.98;;
45688;SDS011;31400;48.132;20.872;2023-02-16T11:09:58;56.97;;;23.85;;
45688;SDS011;31400;48.132;20.872;2023-02-16T11:15:20;61.20;;;28.23;;
45688;SDS011;31400;48.132;20.872;2023-02-16T11:17:48;48.27;;;23.83;;
45688;SDS011;31400;48.132;20.872;2023-02-16T11:22:52;67.97;;;27.65;;
45688;SDS011;31400;48.132;20.872;2023-02-16T11:25:20;69.13;;;26.90;;
45688;SDS011;31400;48.132;20.872;2023-02-16T11:27:57;51.65;;;24.92;;
45688;SDS011;31400;48.132;20.872;2023-02-16T11:30:30;53.40;;;25.30;;
45688;SDS011;31400;48.132;20.872;2023-02-16T11:32:57;63.55;;;25.75;;
45688;SDS011;31400;48.132;20.872;2023-02-16T11:35:23;58.92;;;22.42;;
45688;SDS011;31400;48.132;20.872;2023-02-16T11:37:50;51.50;;;20.65;;
45688;SDS011;31400;48.132;20.872;2023-02-16T11:42:52;53.30;;;24.30;;
45688;SDS011;31400;48.132;20.872;2023-02-16T11:45:23;48.85;;;22.40;;
45688;SDS011;31400;48.132;20.872;2023-02-16T11:47:51;47.90;;;21.00;;
45688;SDS011;31400;48.132;20.872;2023-02-16T11:50:19;38.22;;;20.35;;
45688;SDS011;31400;48.132;20.872;2023-02-16T11:52:48;43.92;;;18.88;;
45688;SDS011;31400;48.132;20.872;2023-02-16T11:55:32;42.13;;;20.33;;
45688;SDS011;31400;48.132;20.872;2023-02-16T11:58:16;44.75;;;21.70;;
45688;SDS011;31400;48.132;20.872;2023-02-16T12:00:45;44.65;;;17.63;;
45688;SDS011;31400;48.132;20.872;2023-02-16T12:03:15;43.10;;;19.20;;
45688;SDS011;31400;48.132;20.872;2023-02-16T12:11:04;40.83;;;19.05;;
45688;SDS011;31400;48.132;20.872;2023-02-16T12:16:26;40.55;;;18.92;;
45688;SDS011;31400;48.132;20.872;2023-02-16T12:21:45;39.33;;;19.30;;
45688;SDS011;31400;48.132;20.872;2023-02-16T12:26:48;42.03;;;16.33;;
45688;SDS011;31400;48.132;20.872;2023-02-16T12:37:11;41.28;;;18.83;;
45688;SDS011;31400;48.132;20.872;2023-02-16T12:39:48;38.20;;;17.77;;
45688;SDS011;31400;48.132;20.872;2023-02-16T12:42:20;45.58;;;20.65;;
45688;SDS011;31400;48.132;20.872;2023-02-16T12:44:49;37.42;;;16.95;;
45688;SDS011;31400;48.132;20.872;2023-02-16T12:47:19;35.85;;;16.92;;
45688;SDS011;31400;48.132;20.872;2023-02-16T12:49:59;38.58;;;18.30;;
45688;SDS011;31400;48.132;20.872;2023-02-16T12:57:35;37.83;;;17.77;;
45688;SDS011;31400;48.132;20.872;2023-02-16T13:00:08;55.65;;;22.50;;
45688;SDS011;31400;48.132;20.872;2023-02-16T13:02:43;48.97;;;20.33;;
45688;SDS011;31400;48.132;20.872;2023-02-16T13:07:40;41.83;;;19.88;;
45688;SDS011;31400;48.132;20.872;2023-02-16T13:12:41;43.83;;;20.35;;
45688;SDS011;31400;48.132;20.872;2023-02-16T13:17:48;37.97;;;17.52;;
45688;SDS011;31400;48.132;20.872;2023-02-16T13:20:19;38.63;;;17.33;;
45688;SDS011;31400;48.132;20.872;2023-02-16T13:33:31;31.45;;;14.93;;
45688;SDS011;31400;48.132;20.872;2023-02-16T13:36:11;32.22;;;14.60;;
45688;SDS011;31400;48.132;20.872;2023-02-16T13:44:16;31.40;;;16.50;;
45688;SDS011;31400;48.132;20.872;2023-02-16T13:46:47;31.88;;;12.52;;
45688;SDS011;31400;48.132;20.872;2023-02-16T13:49:33;32.95;;;16.17;;
45688;SDS011;31400;48.132;20.872;2023-02-16T13:52:07;32.42;;;15.18;;
45688;SDS011;31400;48.132;20.872;2023-02-16T13:54:34;26.88;;;12.43;;
45688;SDS011;31400;48.132;20.872;2023-02-16T13:57:01;27.55;;;13.68;;
45688;SDS011;31400;48.132;20.872;2023-02-16T14:01:54;35.33;;;15.50;;
45688;SDS011;31400;48.132;20.872;2023-02-16T14:17:15;32.38;;;15.10;;
45688;SDS011;31400;48.132;20.872;2023-02-16T14:19:48;27.67;;;15.63;;
45688;SDS011;31400;48.132;20.872;2023-02-16T14:22:17;31.02;;;14.38;;
45688;SDS011;31400;48.132;20.872;2023-02-16T14:24:49;32.28;;;14.82;;
45688;SDS011;31400;48.132;20.872;2023-02-16T14:27:20;31.42;;;15.52;;
45688;SDS011;31400;48.132;20.872;2023-02-16T14:30:02;33.53;;;16.77;;
45688;SDS011;31400;48.132;20.872;2023-02-16T14:32:30;29.55;;;15.68;;
45688;SDS011;31400;48.132;20.872;2023-02-16T14:35:15;36.60;;;16.33;;
45688;SDS011;31400;48.132;20.872;2023-02-16T14:37:57;35.10;;;14.10;;
45688;SDS011;31400;48.132;20.872;2023-02-16T14:43:02;27.10;;;13.07;;
45688;SDS011;31400;48.132;20.872;2023-02-16T14:45:37;31.80;;;14.95;;
45688;SDS011;31400;48.132;20.872;2023-02-16T14:53:20;32.08;;;15.80;;
45688;SDS011;31400;48.132;20.872;2023-02-16T14:59:05;38.70;;;16.58;;
45688;SDS011;31400;48.132;20.872;2023-02-16T15:01:24;30.17;;;14.98;;
45688;SDS011;31400;48.132;20.872;2023-02-16T15:03:52;28.67;;;13.52;;
45688;SDS011;31400;48.132;20.872;2023-02-16T15:06:24;32.22;;;15.27;;
45688;SDS011;31400;48.132;20.872;2023-02-16T15:08:54;35.05;;;15.75;;
45688;SDS011;31400;48.132;20.872;2023-02-16T15:11:31;35.78;;;17.10;;
45688;SDS011;31400;48.132;20.872;2023-02-16T15:14:06;27.35;;;14.43;;
45688;SDS011;31400;48.132;20.872;2023-02-16T15:16:33;30.67;;;15.88;;
45688;SDS011;31400;48.132;20.872;2023-02-16T15:21:26;28.33;;;13.70;;
45688;SDS011;31400;48.132;20.872;2023-02-16T15:23:55;32.88;;;14.20;;
45688;SDS011;31400;48.132;20.872;2023-02-16T15:26:22;39.88;;;16.85;;
45688;SDS011;31400;48.132;20.872;2023-02-16T15:28:50;34.80;;;16.02;;
45688;SDS011;31400;48.132;20.872;2023-02-16T15:31:20;40.95;;;16.00;;
45688;SDS011;31400;48.132;20.872;2023-02-16T15:33:57;35.15;;;15.32;;
45688;SDS011;31400;48.132;20.872;2023-02-16T15:36:29;28.33;;;15.15;;
45688;SDS011;31400;48.132;20.872;2023-02-16T15:38:57;33.00;;;17.48;;
45688;SDS011;31400;48.132;20.872;2023-02-16T15:41:33;27.15;;;13.85;;
45688;SDS011;31400;48.132;20.872;2023-02-16T15:44:01;33.67;;;14.10;;
45688;SDS011;31400;48.132;20.872;2023-02-16T15:46:32;39.33;;;17.25;;
45688;SDS011;31400;48.132;20.872;2023-02-16T15:48:58;41.08;;;17.25;;
45688;SDS011;31400;48.132;20.872;2023-02-16T15:51:35;36.63;;;15.35;;
45688;SDS011;31400;48.132;20.872;2023-02-16T15:54:03;30.23;;;15.32;;
45688;SDS011;31400;48.132;20.872;2023-02-16T15:58:57;40.72;;;18.13;;
45688;SDS011;31400;48.132;20.872;2023-02-16T16:01:32;38.75;;;17.92;;
45688;SDS011;31400;48.132;20.872;2023-02-16T16:04:00;25.60;;;11.40;;
45688;SDS011;31400;48.132;20.872;2023-02-16T16:06:32;29.30;;;13.57;;
45688;SDS011;31400;48.132;20.872;2023-02-16T16:08:58;38.67;;;15.77;;
45688;SDS011;31400;48.132;20.872;2023-02-16T16:11:24;49.22;;;17.48;;
45688;SDS011;31400;48.132;20.872;2023-02-16T16:13:51;36.17;;;16.95;;
45688;SDS011;31400;48.132;20.872;2023-02-16T16:16:17;33.22;;;15.60;;
45688;SDS011;31400;48.132;20.872;2023-02-16T16:18:51;42.25;;;19.20;;
45688;SDS011;31400;48.132;20.872;2023-02-16T16:21:22;41.22;;;15.30;;
45688;SDS011;31400;48.132;20.872;2023-02-16T16:23:57;36.10;;;16.92;;
45688;SDS011;31400;48.132;20.872;2023-02-16T16:32:33;32.42;;;14.88;;
45688;SDS011;31400;48.132;20.872;2023-02-16T16:35:19;32.15;;;12.60;;
45688;SDS011;31400;48.132;20.872;2023-02-16T16:37:47;33.13;;;14.70;;
45688;SDS011;31400;48.132;20.872;2023-02-16T16:45:42;44.38;;;18.20;;
45688;SDS011;31400;48.132;20.872;2023-02-16T16:48:13;32.45;;;16.10;;
45688;SDS011;31400;48.132;20.872;2023-02-16T16:50:39;36.88;;;14.40;;
45688;SDS011;31400;48.132;20.872;2023-02-16T16:55:51;31.25;;;13.52;;
45688;SDS011;31400;48.132;20.872;2023-02-16T16:58:17;36.55;;;16.35;;
45688;SDS011;31400;48.132;20.872;2023-02-16T17:00:52;39.60;;;20.80;;
45688;SDS011;31400;48.132;20.872;2023-02-16T17:03:35;34.13;;;16.55;;
45688;SDS011;31400;48.132;20.872;2023-02-16T17:06:01;38.53;;;15.57;;
45688;SDS011;31400;48.132;20.872;2023-02-16T17:08:30;45.45;;;17.55;;
45688;SDS011;31400;48.132;20.872;2023-02-16T17:10:59;45.45;;;19.23;;
45688;SDS011;31400;48.132;20.872;2023-02-16T17:13:37;49.05;;;22.63;;